Latest Weather Observations for Mount Gambier

IDS60801

Issued at 2:35 pm CST Friday 25 April 2014 (issued every 30 minutes, with the page automatically refreshed every 10 minutes)

About weather observations | Map of weather stations | Latest weather observations for SA | Other Formats
Station Details ID: 026021 Name: MOUNT GAMBIER AERO Lat: -37.75 Lon: 140.77 Height: 63.0 m
Data from the previous 72 hours. | See also: Recent months at Mount Gambier
Date/Time
CST
Temp
°C
App
Temp
°C
Dew
Point
Rel
Hum
%
Delta-T
°C
Wind Press
QNH
hPa
Press
MSL
hPa
Rain
since 9 am
mm
Dir
 
Spd
km/h
Gust
km/h
Spd
kts
Gust
kts
25/02:30pm 19.1 13.2 4.0 37 7.2 NNW 24 37 13 20 1012.3 - 0.0
25/02:00pm 18.9 13.1 4.3 38 7.0 N 24 35 13 19 1012.4 - 0.0
25/01:30pm 18.4 12.6 4.4 39 6.7 N 24 33 13 18 1012.8 - 0.0
25/01:00pm 18.2 12.5 4.7 41 6.5 N 24 37 13 20 1013.4 - 0.0
25/12:30pm 17.8 12.3 4.0 40 6.5 N 22 32 12 17 1014.1 - 0.0
25/12:00pm 16.7 11.6 4.1 43 5.9 N 20 28 11 15 1014.9 1014.9 0.0
25/11:30am 16.6 10.8 4.2 43 5.8 N 24 32 13 17 1015.7 - 0.0
25/11:00am 16.1 9.9 4.4 45 5.5 N 26 33 14 18 1016.0 - 0.0
25/10:30am 15.1 10.3 4.6 49 4.9 N 19 26 10 14 1016.3 - 0.0
25/10:00am 13.8 9.1 5.3 56 4.0 N 19 28 10 15 1017.2 - 0.0
25/09:30am 12.2 7.1 6.0 66 2.9 N 22 32 12 17 1017.9 - 0.0
25/09:00am 10.1 5.0 5.8 74 2.0 NNE 22 30 12 16 1018.2 1018.2 0.0
25/08:30am 8.1 4.2 5.2 82 1.3 NNE 15 19 8 10 1018.7 - 0.0
25/08:00am 6.4 2.7 4.3 86 0.9 NNE 13 15 7 8 1018.6 - 0.0
25/07:30am 5.5 2.1 3.8 89 0.7 NNE 11 13 6 7 1018.7 - 0.0
25/07:00am 4.0 0.1 3.3 95 0.3 NNE 13 13 7 7 1018.5 - 0.0
25/06:30am 4.8 1.3 3.6 92 0.5 NNE 11 13 6 7 1018.7 - 0.0
25/06:00am 4.6 1.0 3.1 90 0.6 NE 11 11 6 6 1018.7 1018.7 0.0
25/05:30am 4.4 1.3 3.7 95 0.3 ENE 9 9 5 5 1018.9 - 0.0
25/05:00am 4.3 1.2 3.6 95 0.3 NE 9 9 5 5 1019.3 - 0.0
25/04:30am 4.9 1.9 3.9 93 0.4 NE 9 9 5 5 1019.2 - 0.0
25/04:00am 5.2 2.2 4.0 92 0.5 NNE 9 11 5 6 1019.2 - 0.0
25/03:30am 4.7 1.7 4.0 95 0.3 NE 9 9 5 5 1019.5 - 0.0
25/03:00am 4.9 2.3 4.2 95 0.3 NE 7 9 4 5 1019.7 1019.7 0.0
25/02:30am 5.3 2.4 4.6 95 0.3 NE 9 11 5 6 1019.9 - 0.0
25/02:00am 4.7 2.2 3.7 93 0.4 NNE 6 7 3 4 1020.2 - 0.0
25/01:30am 5.4 2.8 4.2 92 0.5 NNE 7 7 4 4 1020.5 - 0.0
25/01:00am 6.2 3.3 4.8 91 0.6 NNE 9 9 5 5 1020.6 - 0.0
25/12:30am 6.5 3.6 4.7 88 0.8 NNE 9 9 5 5 1020.6 - 0.0
25/12:00am 5.9 2.9 4.3 89 0.7 NE 9 9 5 5 1020.5 1020.5 0.0
 
Date/Time
CST
Temp
°C
App
Temp
°C
Dew
Point
Rel
Hum
%
Delta-T
°C
Wind Press
QNH
hPa
Press
MSL
hPa
Rain
since 9 am
mm
Dir
 
Spd
km/h
Gust
km/h
Spd
kts
Gust
kts
24/11:30pm 6.3 3.7 4.4 88 0.8 NE 7 7 4 4 1020.5 - 0.0
24/11:00pm 6.2 3.9 4.6 89 0.7 NNE 6 7 3 4 1020.9 - 0.0
24/10:30pm 6.2 3.6 4.1 86 0.9 NNE 7 7 4 4 1021.2 - 0.0
24/10:00pm 6.2 2.8 3.8 85 1.0 NNE 11 13 6 7 1021.4 - 0.0
24/09:30pm 5.9 3.4 3.8 86 0.9 NNE 6 7 3 4 1021.3 - 0.0
24/09:00pm 7.2 4.6 4.2 81 1.3 NE 7 9 4 5 1021.1 1021.1 0.0
24/08:30pm 7.7 6.4 4.2 78 1.5 CALM 0 0 0 0 1021.2 - 0.0
24/08:00pm 7.4 4.9 3.9 78 1.5 SSW 6 9 3 5 1021.0 - 0.0
24/07:30pm 7.7 5.2 3.7 76 1.7 SE 6 7 3 4 1020.9 - 0.0
24/07:00pm 8.8 6.1 3.7 70 2.2 SSE 7 9 4 5 1020.8 - 0.0
24/06:30pm 9.0 6.1 4.5 73 2.0 SSW 9 11 5 6 1020.5 - 0.0
24/06:00pm 9.8 6.5 4.4 69 2.4 S 11 13 6 7 1020.1 1020.1 0.0
24/05:30pm 10.6 6.5 4.6 66 2.7 SSW 15 17 8 9 1019.8 - 0.0
24/05:00pm 12.0 8.0 5.0 62 3.2 S 15 19 8 10 1019.7 - 0.0
24/04:30pm 13.0 9.0 5.0 58 3.7 S 15 19 8 10 1019.5 - 0.0
24/04:00pm 13.7 9.3 4.9 55 4.1 S 17 20 9 11 1019.3 - 0.0
24/03:30pm 14.4 10.1 5.3 54 4.3 S 17 20 9 11 1019.0 - 0.0
24/03:00pm 15.1 10.4 5.1 51 4.7 S 19 24 10 13 1018.8 1018.8 0.0
24/02:30pm 14.6 10.0 5.8 55 4.2 S 19 28 10 15 1018.5 - 0.0
24/02:00pm 14.7 10.1 5.7 55 4.3 S 19 26 10 14 1018.5 - 0.0
24/01:30pm 15.3 10.5 5.4 51 4.7 SSW 20 30 11 16 1018.6 - 0.0
24/01:00pm 14.9 9.4 5.9 55 4.3 SW 24 30 13 16 1018.7 - 0.0
24/12:30pm 15.2 10.0 5.3 51 4.7 SSW 22 32 12 17 1018.8 - 0.0
24/12:00pm 14.8 9.9 5.0 52 4.6 SSW 20 30 11 16 1018.7 1018.7 0.0
24/11:30am 16.7 11.9 5.5 47 5.4 SSW 20 28 11 15 1018.7 - 0.0
24/11:00am 14.5 8.2 4.0 49 4.8 S 26 32 14 17 1018.8 - 0.0
24/10:30am 14.9 9.8 6.2 56 4.2 S 22 32 12 17 1018.4 - 0.0
24/10:00am 14.3 8.5 4.6 52 4.5 SSW 24 33 13 18 1018.1 - 0.0
24/09:30am 14.5 9.0 2.0 43 5.5 SSW 20 28 11 15 1018.1 - 0.0
24/09:00am 13.8 8.3 1.9 44 5.2 SW 20 32 11 17 1018.0 1018.0 1.0
24/08:30am 12.9 8.4 4.4 56 3.9 SSW 17 20 9 11 1017.7 - 1.0
24/08:00am 11.9 8.8 5.4 64 3.0 SW 11 17 6 9 1017.2 - 1.0
24/07:30am 10.8 7.5 4.8 66 2.7 WSW 11 13 6 7 1016.5 - 1.0
24/07:00am 10.1 6.4 4.5 68 2.5 WSW 13 17 7 9 1015.8 - 1.0
24/06:30am 10.8 6.0 4.9 67 2.7 SW 19 26 10 14 1015.4 - 1.0
24/06:00am 11.7 7.2 6.2 69 2.6 SW 19 28 10 15 1015.0 1015.0 1.0
24/05:30am 12.5 8.4 7.8 73 2.3 SW 19 26 10 14 1014.2 - 1.0
24/05:00am 12.9 8.9 9.1 78 1.9 SW 20 28 11 15 1013.6 - 1.0
24/04:30am 12.9 9.1 9.8 81 1.6 SW 20 28 11 15 1012.9 - 1.0
24/04:00am 13.1 9.7 11.2 88 1.0 SW 20 30 11 16 1012.2 - 1.0
24/03:49am 13.2 9.1 11.5 89 0.9 SW 24 35 13 19 1011.9 - 1.0
24/03:43am 13.2 - 11.7 91 0.8 - - - - - 1011.8 - 1.0
24/03:31am 13.6 8.3 12.5 93 0.6 WSW 32 46 17 25 1011.6 - 1.0
24/03:30am 13.6 8.7 12.5 93 0.6 WSW 30 46 16 25 1011.6 - 1.0
24/03:29am 13.7 8.8 12.4 92 0.7 WSW 30 41 16 22 1011.4 - 1.0
24/03:18am 13.9 10.2 12.8 93 0.6 W 24 30 13 16 1011.3 - 0.8
24/03:15am 13.9 9.8 12.8 93 0.6 W 26 32 14 17 1011.2 - 0.8
24/03:06am 14.1 8.6 12.6 91 0.8 W 33 44 18 24 1011.2 - 0.8
24/03:00am 14.1 8.3 12.6 91 0.8 W 35 46 19 25 1011.2 1011.2 0.8
24/02:53am 14.6 9.9 13.3 92 0.7 W 30 35 16 19 1011.1 - 0.8
24/02:30am 14.8 10.9 13.2 90 0.9 WNW 26 41 14 22 1010.5 - 0.2
24/02:28am 14.7 10.7 13.1 90 0.9 NW 26 41 14 22 1010.5 - 0.2
24/02:11am 14.6 11.9 12.8 89 1.0 NW 19 32 10 17 1010.4 - 0.0
24/02:00am 14.4 11.1 12.8 90 0.9 NNW 22 30 12 16 1010.4 - 0.0
24/01:30am 14.1 10.3 12.5 90 0.9 NNW 24 33 13 18 1010.6 - 0.0
24/01:00am 13.7 10.3 12.6 93 0.6 NNW 22 32 12 17 1010.8 - 0.0
24/12:30am 13.1 10.2 12.2 94 0.5 N 19 26 10 14 1011.0 - 0.0
24/12:00am 13.0 9.9 11.7 92 0.7 N 19 24 10 13 1011.1 1011.1 0.0
 
Date/Time
CST
Temp
°C
App
Temp
°C
Dew
Point
Rel
Hum
%
Delta-T
°C
Wind Press
QNH
hPa
Press
MSL
hPa
Rain
since 9 am
mm
Dir
 
Spd
km/h
Gust
km/h
Spd
kts
Gust
kts
23/11:30pm 13.1 9.4 11.4 89 0.9 NNW 22 32 12 17 1011.3 - 0.0
23/11:00pm 13.2 9.3 10.9 86 1.2 NNW 22 30 12 16 1011.7 - 0.0
23/10:30pm 13.1 9.5 10.4 84 1.4 NNW 20 30 11 16 1011.8 - 0.0
23/10:00pm 13.6 10.1 10.3 80 1.7 NNW 19 26 10 14 1012.1 - 0.0
23/09:30pm 13.4 9.3 10.1 80 1.7 NNW 22 33 12 18 1012.3 - 0.0
23/09:00pm 13.0 8.3 9.3 78 1.9 NNW 24 37 13 20 1012.3 1012.2 0.0
23/08:30pm 13.1 9.3 8.9 75 2.1 N 19 26 10 14 1012.4 - 0.0
23/08:00pm 13.2 9.8 9.1 76 2.1 N 17 24 9 13 1012.5 - 0.0
23/07:30pm 13.2 10.1 8.8 74 2.2 N 15 19 8 10 1012.7 - 0.0
23/07:00pm 13.6 10.8 8.6 72 2.5 N 13 19 7 10 1012.9 - 0.0
23/06:30pm 14.0 10.7 8.2 68 2.9 N 15 20 8 11 1012.9 - 0.0
23/06:00pm 13.8 10.5 8.0 68 2.9 NNW 15 19 8 10 1012.7 1012.6 0.0
23/05:30pm 13.8 9.4 7.5 66 3.1 NNW 20 30 11 16 1012.5 - 0.0
23/05:00pm 15.4 9.5 7.3 58 4.0 NNW 28 39 15 21 1012.6 - 0.0
23/04:30pm 16.3 10.9 6.3 51 4.9 NNW 24 35 13 19 1012.4 - 0.0
23/04:00pm 17.3 12.8 7.1 51 5.1 NNW 20 30 11 16 1012.5 - 0.0
23/03:30pm 17.1 10.7 5.0 44 5.8 NW 28 35 15 19 1012.7 - 0.0
23/03:00pm 18.8 13.3 6.1 43 6.3 NW 24 33 13 18 1013.0 1012.9 0.0
23/02:30pm 18.3 12.0 5.9 44 6.1 NNW 28 37 15 20 1013.1 - 0.0
23/02:00pm 17.6 12.5 7.5 51 5.1 NNW 24 33 13 18 1013.3 - 0.0
23/01:30pm 18.8 13.4 8.1 49 5.5 NNW 26 35 14 19 1013.6 - 0.0
23/01:00pm 17.2 11.3 7.5 53 4.9 NNW 28 37 15 20 1014.1 - 0.0
23/12:30pm 18.2 12.5 8.5 53 5.0 NNW 28 41 15 22 1014.7 - 0.0
23/12:00pm 16.2 10.9 8.6 60 3.9 NNW 26 37 14 20 1015.3 1015.3 0.0
23/11:30am 16.0 11.4 9.5 65 3.4 NNW 24 35 13 19 1015.9 - 0.0
23/11:00am 15.1 11.5 9.7 70 2.8 NNW 19 30 10 16 1016.2 - 0.0
23/10:30am 13.9 10.6 9.6 75 2.2 NNW 17 24 9 13 1016.5 - 0.0
23/10:00am 14.2 11.2 10.6 79 1.9 N 17 20 9 11 1016.6 - 0.0
23/09:30am 11.7 9.0 10.3 91 0.7 N 15 19 8 10 1017.1 - 0.0
23/09:00am 10.7 7.8 9.7 93 0.5 N 15 19 8 10 1017.2 1017.2 0.0
23/08:30am 10.2 6.9 9.6 96 0.3 N 17 22 9 12 1017.3 - 0.0
23/08:00am 9.2 5.7 8.8 97 0.2 N 17 26 9 14 1017.0 - 0.0
23/07:30am 7.8 4.0 7.6 99 0.1 NNW 17 26 9 14 1016.9 - 0.0
23/07:00am 7.6 3.8 7.4 99 0.1 N 17 20 9 11 1016.7 - 0.0
23/06:30am 7.7 3.9 7.5 99 0.1 N 17 26 9 14 1016.6 - 0.0
23/06:00am 7.2 3.6 6.8 97 0.2 N 15 19 8 10 1016.4 1016.4 0.0
23/05:30am 6.5 5.3 6.3 99 0.1 NNW 2 7 1 4 1016.8 - 0.0
23/05:06am 6.6 5.8 6.6 100 0.0 CALM 0 6 0 3 1016.8 - 0.0
23/05:00am 6.9 5.3 6.5 97 0.2 NE 4 7 2 4 1016.8 - 0.0
23/04:49am 6.6 5.0 6.4 99 0.1 NNE 4 7 2 4 1016.8 - 0.0
23/04:30am 6.5 4.3 6.3 99 0.1 N 7 9 4 5 1016.7 - 0.0
23/04:00am 6.7 3.4 6.3 97 0.2 NW 13 15 7 8 1016.5 - 0.0
23/03:39am 6.0 3.7 5.5 97 0.2 NNW 7 13 4 7 1016.6 - 0.0
23/03:30am 6.8 5.3 6.8 100 0.0 NNE 4 11 2 6 1016.6 - 0.0
23/03:20am 6.1 3.1 5.9 99 0.1 NNW 11 13 6 7 1016.5 - 0.0
23/03:00am 7.4 4.7 7.2 99 0.1 NW 11 15 6 8 1016.5 1016.5 0.0
23/02:30am 7.1 5.2 6.9 99 0.1 NNW 6 9 3 5 1016.6 - 0.0
23/02:06am 6.9 5.0 6.5 97 0.2 NNE 6 7 3 4 1016.9 - 0.0
23/02:00am 6.9 4.8 6.7 99 0.1 NNW 7 9 4 5 1017.0 - 0.0
23/01:47am 7.1 5.1 6.9 99 0.1 WNW 7 9 4 5 1017.2 - 0.0
23/01:30am 7.3 6.6 7.1 99 0.1 CALM 0 0 0 0 1017.4 - 0.0
23/01:00am 7.3 6.2 6.9 97 0.2 NNE 2 7 1 4 1017.4 - 0.0
23/12:30am 8.0 6.9 7.1 94 0.4 NW 2 6 1 3 1017.6 - 0.0
23/12:00am 8.1 6.3 7.2 94 0.4 WNW 6 7 3 4 1017.7 1017.7 0.0
 
Date/Time
CST
Temp
°C
App
Temp
°C
Dew
Point
Rel
Hum
%
Delta-T
°C
Wind Press
QNH
hPa
Press
MSL
hPa
Rain
since 9 am
mm
Dir
 
Spd
km/h
Gust
km/h
Spd
kts
Gust
kts
22/11:30pm 8.1 7.4 7.0 93 0.5 CALM 0 7 0 4 1018.1 - 0.0
22/11:00pm 8.6 8.0 7.5 93 0.5 CALM 0 0 0 0 1018.3 - 0.0
22/10:30pm 8.7 8.1 7.4 91 0.6 CALM 0 0 0 0 1018.4 - 0.0
22/10:00pm 8.1 7.1 7.2 94 0.4 N 2 9 1 5 1018.5 - 0.0
22/09:30pm 9.0 7.7 7.7 91 0.6 N 4 7 2 4 1018.6 - 0.0
22/09:00pm 8.6 6.2 7.1 90 0.7 NE 9 11 5 6 1018.5 1018.5 0.0
22/08:30pm 9.4 7.3 8.2 92 0.6 WNW 9 11 5 6 1018.3 - 0.0
22/08:00pm 9.3 8.9 8.3 93 0.5 CALM 0 0 0 0 1018.3 - 0.0
22/07:30pm 8.8 8.2 7.5 91 0.6 CALM 0 0 0 0 1018.1 - 0.0
22/07:00pm 10.4 10.0 8.4 87 1.0 CALM 0 6 0 3 1018.0 - 0.0
22/06:30pm 11.7 9.7 8.5 81 1.6 W 9 11 5 6 1017.7 - 0.0
22/06:00pm 12.4 10.4 8.6 77 1.9 W 9 11 5 6 1017.3 1017.3 0.0
22/05:30pm 12.6 9.9 8.8 77 1.9 WSW 13 15 7 8 1017.0 - 0.0
22/05:00pm 14.3 11.1 8.3 67 3.0 SW 15 19 8 10 1016.8 - 0.0
22/04:30pm 15.1 11.4 7.9 62 3.6 SW 17 26 9 14 1016.6 - 0.0
22/04:00pm 16.1 11.7 7.5 56 4.3 SW 20 28 11 15 1016.4 - 0.0
22/03:30pm 16.2 12.5 8.1 58 4.1 WSW 17 26 9 14 1016.2 - 0.0
22/03:00pm 16.4 13.6 8.6 60 4.0 WSW 13 19 7 10 1016.0 1016.0 0.0

Other Formats:

Comma delimited format used in spreadsheet applications
http://www.bom.gov.au/fwo/IDS60801/IDS60801.94821.axf

JavaScript Object Notation format (JSON) in row-major order
http://www.bom.gov.au/fwo/IDS60801/IDS60801.94821.json